Government of Jersey

Home Log in

Channel Islands Terminal Aerodrome Forecasts (TAFs)

Jersey Airport - EGJJ

EGJJ 101059Z 1012/1021 VRB05KT 9999 FEW015 TEMPO 1012/1021 9000 PROB30 TEMPO 1012/1018 8000 SHRA BKN080CB=

Guernsey Airport - EGJB

EGJB 101059Z 1012/1021 34008KT 5000 FEW015 TEMPO 1012/1021 8000 PROB30 TEMPO 1012/1021 SHRA BKN080CB=

Alderney Airport - EGJA

EGJA 101059Z 1012/1021 34010KT 9999 BKN005 PROB30 TEMPO 1012/1021 8000 SHRA BKN080CB TEMPO 1014/1021 SCT005=